createdAt,value
2023-05-13T00:02:12.168Z,16.75
2023-05-13T00:04:39.902Z,16.72
2023-05-13T00:07:07.581Z,16.27
2023-05-13T00:09:35.278Z,16.31
2023-05-13T00:12:04.505Z,16.58
2023-05-13T00:14:32.248Z,16.36
2023-05-13T00:17:02.110Z,16.56
2023-05-13T00:19:32.576Z,16.50
2023-05-13T00:22:00.424Z,16.47
2023-05-13T00:24:28.200Z,16.44
2023-05-13T00:26:55.853Z,16.38
2023-05-13T00:29:24.873Z,16.32
2023-05-13T00:31:52.892Z,16.30
2023-05-13T00:34:20.704Z,16.26
2023-05-13T00:36:48.430Z,16.17
2023-05-13T00:39:16.165Z,16.26
2023-05-13T00:41:43.889Z,16.23
2023-05-13T00:44:13.296Z,16.23
2023-05-13T00:46:43.558Z,16.23
2023-05-13T00:49:11.307Z,16.27
2023-05-13T00:51:39.051Z,16.28
2023-05-13T00:54:06.807Z,16.32
2023-05-13T00:56:34.507Z,16.37
2023-05-13T00:59:02.241Z,16.41
2023-05-13T01:01:33.580Z,16.43
2023-05-13T01:04:08.501Z,16.50
2023-05-13T01:06:41.578Z,16.54
2023-05-13T01:09:12.161Z,16.39
2023-05-13T01:11:41.229Z,16.58
2023-05-13T01:14:11.173Z,16.40
2023-05-13T01:16:41.198Z,16.62
2023-05-13T01:19:34.420Z,16.62
2023-05-13T01:22:03.449Z,16.64
2023-05-13T01:24:31.257Z,16.65
2023-05-13T01:26:59.222Z,16.65
2023-05-13T01:29:26.999Z,16.23
2023-05-13T01:31:54.790Z,16.55
2023-05-13T01:34:22.514Z,16.61
2023-05-13T01:36:50.190Z,16.58
2023-05-13T01:39:19.557Z,16.33
2023-05-13T01:41:47.345Z,16.38
2023-05-13T01:44:15.682Z,16.41
2023-05-13T01:46:44.113Z,16.02
2023-05-13T01:49:11.962Z,16.34
2023-05-13T01:51:41.267Z,16.30
2023-05-13T01:54:08.960Z,16.27
2023-05-13T01:56:38.651Z,16.22
2023-05-13T01:59:06.379Z,15.99
2023-05-13T02:01:34.114Z,16.14
2023-05-13T02:04:01.893Z,16.08
2023-05-13T02:06:29.609Z,16.04
2023-05-13T02:08:57.287Z,15.98
2023-05-13T02:11:25.024Z,15.93
2023-05-13T02:13:54.149Z,15.96
2023-05-13T02:16:23.188Z,15.96
2023-05-13T02:18:51.449Z,15.98
2023-05-13T02:21:19.288Z,15.64
2023-05-13T02:23:47.036Z,15.91
2023-05-13T02:26:14.694Z,15.88
2023-05-13T02:28:42.495Z,15.86
2023-05-13T02:31:11.504Z,15.85
2023-05-13T02:33:39.154Z,15.82
2023-05-13T02:36:07.317Z,15.79
2023-05-13T02:38:35.038Z,15.53
2023-05-13T02:41:02.757Z,15.59
2023-05-13T02:43:30.460Z,15.35
2023-05-13T02:45:58.201Z,15.75
2023-05-13T02:48:27.275Z,15.74
2023-05-13T02:50:54.982Z,15.73
2023-05-13T02:53:23.156Z,15.46
2023-05-13T02:55:50.892Z,15.72
2023-05-13T02:58:18.647Z,15.71
2023-05-13T03:00:46.399Z,15.71
2023-05-13T03:03:14.221Z,15.30
2023-05-13T03:05:43.478Z,15.71
2023-05-13T03:08:11.170Z,15.69
2023-05-13T03:10:38.851Z,15.67
2023-05-13T03:13:06.714Z,15.64
2023-05-13T03:15:34.375Z,15.63
2023-05-13T03:18:02.091Z,15.59
2023-05-13T03:20:29.947Z,15.50
2023-05-13T03:22:59.048Z,15.49
2023-05-13T03:25:26.718Z,15.47
2023-05-13T03:27:55.591Z,15.46
2023-05-13T03:30:23.451Z,15.45
2023-05-13T03:32:51.296Z,15.13
2023-05-13T03:35:19.230Z,15.39
2023-05-13T03:37:47.054Z,15.28
2023-05-13T03:40:16.577Z,14.87
2023-05-13T03:42:44.412Z,15.30
2023-05-13T03:45:13.300Z,15.25
2023-05-13T03:47:41.277Z,15.22
2023-05-13T03:50:10.510Z,15.21
2023-05-13T03:52:38.209Z,15.21
2023-05-13T03:55:06.551Z,15.18
2023-05-13T03:57:35.764Z,15.17
2023-05-13T04:00:03.632Z,15.19
2023-05-13T04:02:31.506Z,15.19
2023-05-13T04:04:59.310Z,14.42
2023-05-13T04:07:27.050Z,14.79
2023-05-13T04:09:54.867Z,15.20
2023-05-13T04:12:22.542Z,15.17
2023-05-13T04:14:51.777Z,15.12
2023-05-13T04:17:19.452Z,15.10
2023-05-13T04:19:47.276Z,15.02
2023-05-13T04:22:14.990Z,14.98
2023-05-13T04:24:42.875Z,15.15
2023-05-13T04:27:10.518Z,15.10
2023-05-13T04:29:39.298Z,15.21
2023-05-13T04:32:08.799Z,15.23
2023-05-13T04:34:36.711Z,15.17
2023-05-13T04:37:04.369Z,15.31
2023-05-13T04:39:32.224Z,15.34
2023-05-13T04:41:59.908Z,15.38
2023-05-13T04:44:27.758Z,15.41
2023-05-13T04:46:55.533Z,15.44
2023-05-13T04:49:24.783Z,15.45
2023-05-13T04:51:53.077Z,15.50
2023-05-13T04:54:21.596Z,15.25
2023-05-13T04:56:49.262Z,15.53
2023-05-13T04:59:17.088Z,15.25
2023-05-13T05:01:44.961Z,15.61
2023-05-13T05:04:13.050Z,15.67
2023-05-13T05:09:17.782Z,15.81
2023-05-13T05:11:45.570Z,15.88
2023-05-13T05:14:13.374Z,15.64
2023-05-13T05:16:41.103Z,15.61
2023-05-13T05:19:08.964Z,15.79
2023-05-13T05:21:36.706Z,15.97
2023-05-13T05:24:04.917Z,16.23
2023-05-13T05:26:34.075Z,16.33
2023-05-13T05:29:01.806Z,16.52
2023-05-13T05:31:30.377Z,16.72
2023-05-13T05:33:59.107Z,16.76
2023-05-13T05:36:26.971Z,16.86
2023-05-13T05:38:54.672Z,16.71
2023-05-13T05:41:23.497Z,17.16
2023-05-13T05:43:52.936Z,17.30
2023-05-13T05:46:20.784Z,17.26
2023-05-13T05:48:49.009Z,18.21
2023-05-13T05:51:16.812Z,18.13
2023-05-13T05:53:44.491Z,19.12
2023-05-13T05:56:12.341Z,19.64
2023-05-13T05:58:40.080Z,19.70
2023-05-13T06:01:09.383Z,20.40
2023-05-13T06:03:37.682Z,20.77
2023-05-13T06:06:06.155Z,21.07
2023-05-13T06:08:34.922Z,21.37
2023-05-13T06:11:02.633Z,21.27
2023-05-13T06:13:30.596Z,21.94
2023-05-13T06:15:58.418Z,21.93
2023-05-13T06:18:28.449Z,22.49
2023-05-13T06:20:56.718Z,22.32
2023-05-13T06:23:24.637Z,22.98
2023-05-13T06:25:52.850Z,22.09
2023-05-13T06:28:20.924Z,22.70
2023-05-13T06:30:48.779Z,21.52
2023-05-13T06:33:38.415Z,22.06
2023-05-13T06:36:09.395Z,21.79
2023-05-13T06:38:45.151Z,21.67
2023-05-13T06:41:15.641Z,21.67
2023-05-13T06:43:45.549Z,21.65
2023-05-13T06:46:13.256Z,21.59
2023-05-13T06:48:43.177Z,21.34
2023-05-13T06:51:12.289Z,21.41
2023-05-13T06:54:22.244Z,21.40
2023-05-13T06:56:50.024Z,21.10
2023-05-13T06:59:17.926Z,21.37
2023-05-13T07:01:45.584Z,21.49
2023-05-13T07:04:14.542Z,21.49
2023-05-13T07:06:43.805Z,21.67
2023-05-13T07:09:11.595Z,21.79
2023-05-13T07:11:39.324Z,21.23
2023-05-13T07:14:07.139Z,21.88
2023-05-13T07:16:34.903Z,21.92
2023-05-13T07:19:03.162Z,21.86
2023-05-13T07:21:31.288Z,21.97
2023-05-13T07:24:02.140Z,22.44
2023-05-13T07:26:30.030Z,23.07
2023-05-13T07:28:58.143Z,23.73
2023-05-13T07:31:26.262Z,22.75
2023-05-13T07:33:54.414Z,25.15
2023-05-13T07:36:22.374Z,24.65
2023-05-13T07:38:50.655Z,25.10
2023-05-13T07:41:28.698Z,25.40
2023-05-13T07:43:56.414Z,25.85
2023-05-13T07:46:24.271Z,25.57
2023-05-13T07:48:52.291Z,26.16
2023-05-13T07:51:20.237Z,26.87
2023-05-13T07:53:47.984Z,27.93
2023-05-13T07:56:15.892Z,28.68
2023-05-13T07:58:46.060Z,29.32
2023-05-13T08:01:14.108Z,28.98
2023-05-13T08:03:42.214Z,30.08
2023-05-13T08:06:09.986Z,30.40
2023-05-13T08:08:37.769Z,30.67
2023-05-13T08:11:07.518Z,30.74
2023-05-13T08:13:35.348Z,31.66
2023-05-13T08:16:06.945Z,32.03
2023-05-13T08:18:34.763Z,31.51
2023-05-13T08:21:02.701Z,32.31
2023-05-13T08:23:36.827Z,30.35
2023-05-13T08:26:11.700Z,30.39
2023-05-13T08:28:39.596Z,32.04
2023-05-13T08:31:08.760Z,32.33
2023-05-13T08:33:36.669Z,31.81
2023-05-13T08:36:04.734Z,32.32
2023-05-13T08:38:33.451Z,32.21
2023-05-13T08:41:01.551Z,32.63
2023-05-13T08:43:30.638Z,32.65
2023-05-13T08:45:58.554Z,31.87
2023-05-13T08:48:27.755Z,31.90
2023-05-13T08:50:55.612Z,31.67
2023-05-13T08:53:23.509Z,31.70
2023-05-13T08:55:51.273Z,31.38
2023-05-13T08:58:19.088Z,32.07
2023-05-13T09:00:47.089Z,31.93
2023-05-13T09:03:14.946Z,33.01
2023-05-13T09:05:44.710Z,33.66
2023-05-13T09:08:12.677Z,34.43
2023-05-13T09:10:44.733Z,34.64
2023-05-13T09:13:12.841Z,35.44
2023-05-13T09:18:30.979Z,37.12
2023-05-13T09:21:03.047Z,37.14
2023-05-13T09:23:30.966Z,36.81
2023-05-13T09:25:59.022Z,37.00
2023-05-13T09:28:27.868Z,37.37
2023-05-13T09:30:56.097Z,37.46
2023-05-13T09:33:24.370Z,37.95
2023-05-13T09:35:55.253Z,38.10
2023-05-13T09:38:26.826Z,38.81
2023-05-13T09:41:32.092Z,39.40
2023-05-13T09:43:59.807Z,39.58
2023-05-13T09:46:32.498Z,38.62
2023-05-13T09:49:02.050Z,38.46
2023-05-13T09:51:31.433Z,39.05
2023-05-13T09:54:10.432Z,37.90
2023-05-13T09:57:04.934Z,38.43
2023-05-13T09:59:36.385Z,39.38
2023-05-13T10:02:10.317Z,38.75
2023-05-13T10:04:38.497Z,39.36
2023-05-13T10:07:07.272Z,38.96
2023-05-13T10:10:08.728Z,40.00
2023-05-13T10:13:55.424Z,40.08
2023-05-13T10:19:49.244Z,40.82
2023-05-13T10:22:39.808Z,40.65
2023-05-13T10:25:42.673Z,42.29
2023-05-13T10:31:20.085Z,42.24
2023-05-13T10:33:48.162Z,43.87
2023-05-13T10:36:35.946Z,43.98
2023-05-13T10:39:12.359Z,44.25
2023-05-13T10:42:15.721Z,44.85
2023-05-13T10:44:44.968Z,44.88
2023-05-13T10:47:15.069Z,44.64
2023-05-13T10:49:42.943Z,45.49
2023-05-13T10:52:13.564Z,45.73
2023-05-13T10:54:42.150Z,45.91
2023-05-13T10:57:10.447Z,45.40
2023-05-13T10:59:38.925Z,45.18
2023-05-13T11:02:21.911Z,45.12
2023-05-13T11:04:59.178Z,45.06
2023-05-13T11:09:57.003Z,43.63
2023-05-13T11:12:24.751Z,43.51
2023-05-13T11:14:56.591Z,43.21
2023-05-13T11:17:25.888Z,42.99
2023-05-13T11:19:53.625Z,43.38
2023-05-13T11:22:21.978Z,43.27
2023-05-13T11:25:05.982Z,43.14
2023-05-13T11:27:34.353Z,42.35
2023-05-13T11:30:02.021Z,41.88
2023-05-13T11:33:03.060Z,40.88
2023-05-13T11:35:31.515Z,39.34
2023-05-13T11:38:00.379Z,37.47
2023-05-13T11:40:29.519Z,35.98
2023-05-13T11:42:57.644Z,35.11
2023-05-13T11:45:26.871Z,34.50
2023-05-13T11:47:55.069Z,33.59
2023-05-13T11:50:26.954Z,32.94
2023-05-13T11:52:55.726Z,32.74
2023-05-13T11:55:27.054Z,32.54
2023-05-13T11:57:57.034Z,32.27
2023-05-13T12:00:27.979Z,32.07
2023-05-13T12:02:55.840Z,31.95
2023-05-13T12:05:25.490Z,31.71
2023-05-13T12:07:53.513Z,30.70
2023-05-13T12:10:21.366Z,31.43
2023-05-13T12:12:49.096Z,31.61
2023-05-13T12:15:17.614Z,31.64
2023-05-13T12:17:45.550Z,31.71
2023-05-13T12:20:14.611Z,31.30
2023-05-13T12:22:54.488Z,30.99
2023-05-13T12:25:41.974Z,30.91
2023-05-13T12:28:16.518Z,30.33
2023-05-13T12:30:51.248Z,29.72
2023-05-13T12:33:21.025Z,30.44
2023-05-13T12:35:49.463Z,30.12
2023-05-13T12:38:19.964Z,29.81
2023-05-13T12:40:48.051Z,30.04
2023-05-13T12:43:16.831Z,29.88
2023-05-13T12:45:45.825Z,30.34
2023-05-13T12:48:14.663Z,30.04
2023-05-13T12:50:43.428Z,30.47
2023-05-13T12:53:11.239Z,30.47
2023-05-13T12:55:40.831Z,29.57
2023-05-13T12:58:10.984Z,28.93
2023-05-13T13:00:39.334Z,29.52
2023-05-13T13:03:11.721Z,29.97
2023-05-13T13:05:39.650Z,29.60
2023-05-13T13:08:07.419Z,30.03
2023-05-13T13:10:36.423Z,30.01
2023-05-13T13:13:07.633Z,29.94
2023-05-13T13:15:35.418Z,29.38
2023-05-13T13:18:04.644Z,28.54
2023-05-13T13:20:34.456Z,29.66
2023-05-13T13:23:02.250Z,29.18
2023-05-13T13:25:30.352Z,29.05
2023-05-13T13:28:02.007Z,29.61
2023-05-13T13:30:31.448Z,29.59
2023-05-13T13:32:59.239Z,29.47
2023-05-13T13:35:27.161Z,29.10
2023-05-13T13:37:56.020Z,29.17
2023-05-13T13:40:24.259Z,29.17
2023-05-13T13:42:52.537Z,29.15
2023-05-13T13:45:24.000Z,29.10
2023-05-13T13:47:53.130Z,28.48
2023-05-13T13:50:21.129Z,29.09
2023-05-13T13:52:49.075Z,28.74
2023-05-13T13:55:16.937Z,28.76
2023-05-13T13:57:44.838Z,28.63
2023-05-13T14:00:14.347Z,28.39
2023-05-13T14:02:42.186Z,28.46
2023-05-13T14:05:12.149Z,28.41
2023-05-13T14:07:40.024Z,28.35
2023-05-13T14:10:09.341Z,27.81
2023-05-13T14:12:37.360Z,28.20
2023-05-13T14:15:05.927Z,27.97
2023-05-13T14:17:34.092Z,28.38
2023-05-13T14:20:01.916Z,28.35
2023-05-13T14:22:31.346Z,27.98
2023-05-13T14:25:02.408Z,27.92
2023-05-13T14:31:11.207Z,28.38
2023-05-13T14:34:00.507Z,28.12
2023-05-13T14:36:28.300Z,28.70
2023-05-13T14:38:57.609Z,28.38
2023-05-13T14:41:25.712Z,29.17
2023-05-13T14:43:56.096Z,29.18
2023-05-13T14:46:23.914Z,29.00
2023-05-13T14:48:52.243Z,28.37
2023-05-13T14:51:19.994Z,27.85
2023-05-13T14:53:47.939Z,27.29
2023-05-13T14:56:17.119Z,26.60
2023-05-13T14:58:45.029Z,25.90
2023-05-13T15:01:12.833Z,25.62
2023-05-13T15:03:41.075Z,25.24
2023-05-13T15:06:09.115Z,25.45
2023-05-13T15:08:37.876Z,24.04
2023-05-13T15:11:06.046Z,25.02
2023-05-13T15:13:36.754Z,24.67
2023-05-13T15:16:04.629Z,24.22
2023-05-13T15:18:32.479Z,24.49
2023-05-13T15:21:00.302Z,24.22
2023-05-13T15:23:28.069Z,24.00
2023-05-13T15:25:55.812Z,24.15
2023-05-13T15:28:23.658Z,24.07
2023-05-13T15:30:52.920Z,23.84
2023-05-13T15:33:20.746Z,23.88
2023-05-13T15:35:48.635Z,23.67
2023-05-13T15:38:16.897Z,23.88
2023-05-13T15:40:47.306Z,23.77
2023-05-13T15:43:15.044Z,23.39
2023-05-13T15:45:43.303Z,23.63
2023-05-13T15:48:12.364Z,23.52
2023-05-13T15:50:40.323Z,23.44
2023-05-13T15:53:08.126Z,23.22
2023-05-13T15:55:37.382Z,23.46
2023-05-13T15:58:05.156Z,23.52
2023-05-13T16:00:33.187Z,23.53
2023-05-13T16:03:01.130Z,23.35
2023-05-13T16:05:32.409Z,23.56
2023-05-13T16:08:00.212Z,23.38
2023-05-13T16:10:27.984Z,23.61
2023-05-13T16:12:55.854Z,23.08
2023-05-13T16:15:23.812Z,23.62
2023-05-13T16:17:51.616Z,23.44
2023-05-13T16:20:19.576Z,24.10
2023-05-13T16:22:49.090Z,24.09
2023-05-13T16:25:17.203Z,24.14
2023-05-13T16:28:06.719Z,24.34
2023-05-13T16:30:34.636Z,22.87
2023-05-13T16:33:02.834Z,24.62
2023-05-13T16:35:31.627Z,24.78
2023-05-13T16:38:00.753Z,24.92
2023-05-13T16:40:28.689Z,24.81
2023-05-13T16:42:59.256Z,24.64
2023-05-13T16:45:29.148Z,24.84
2023-05-13T16:47:57.228Z,24.84
2023-05-13T16:50:25.856Z,24.07
2023-05-13T16:52:54.617Z,25.09
2023-05-13T16:55:25.945Z,25.36
2023-05-13T16:57:53.875Z,25.35
2023-05-13T17:00:21.976Z,25.16
2023-05-13T17:02:50.121Z,25.27
2023-05-13T17:05:18.620Z,24.80
2023-05-13T17:07:46.602Z,25.27
2023-05-13T17:10:14.828Z,25.25
2023-05-13T17:13:07.527Z,25.13
2023-05-13T17:15:36.552Z,24.84
2023-05-13T17:18:04.936Z,25.02
2023-05-13T17:20:32.858Z,23.28
2023-05-13T17:23:00.677Z,24.35
2023-05-13T17:25:28.429Z,23.71
2023-05-13T17:27:56.494Z,23.33
2023-05-13T17:30:26.062Z,24.20
2023-05-13T17:32:54.025Z,24.16
2023-05-13T17:35:21.981Z,24.07
2023-05-13T17:37:52.691Z,22.85
2023-05-13T17:40:24.040Z,23.62
2023-05-13T17:42:54.998Z,21.37
2023-05-13T17:45:28.589Z,22.91
2023-05-13T17:47:59.333Z,20.70
2023-05-13T17:50:29.914Z,23.62
2023-05-13T17:52:59.746Z,23.56
2023-05-13T17:55:27.570Z,22.69
2023-05-13T17:57:59.049Z,22.95
2023-05-13T18:00:28.982Z,21.97
2023-05-13T18:02:56.835Z,21.67
2023-05-13T18:05:28.967Z,23.35
2023-05-13T18:08:00.595Z,22.05
2023-05-13T18:10:30.157Z,21.69
2023-05-13T18:13:04.330Z,21.08
2023-05-13T18:15:33.844Z,20.52
2023-05-13T18:18:09.273Z,23.06
2023-05-13T18:20:39.953Z,23.00
2023-05-13T18:23:09.045Z,22.20
2023-05-13T18:25:48.495Z,21.13
2023-05-13T18:28:22.577Z,22.76
2023-05-13T18:30:51.880Z,21.13
2023-05-13T18:33:21.520Z,22.58
2023-05-13T18:35:49.691Z,22.09
2023-05-13T18:38:19.696Z,20.39
2023-05-13T18:40:47.666Z,21.99
2023-05-13T18:43:15.563Z,20.74
2023-05-13T18:45:44.673Z,22.00
2023-05-13T18:48:14.015Z,21.90
2023-05-13T18:50:43.087Z,21.84
2023-05-13T18:53:10.944Z,21.76
2023-05-13T18:55:48.487Z,21.58
2023-05-13T18:58:16.793Z,21.04
2023-05-13T19:00:47.811Z,21.42
2023-05-13T19:03:17.120Z,20.81
2023-05-13T19:06:01.074Z,21.20
2023-05-13T19:08:45.612Z,21.06
2023-05-13T19:11:13.829Z,20.93
2023-05-13T19:13:47.486Z,19.96
2023-05-13T19:16:16.235Z,19.37
2023-05-13T19:18:45.613Z,20.67
2023-05-13T19:21:13.527Z,20.00
2023-05-13T19:23:41.609Z,19.92
2023-05-13T19:26:10.525Z,20.11
2023-05-13T19:28:39.056Z,20.44
2023-05-13T19:31:07.794Z,20.37
2023-05-13T19:33:37.107Z,20.19
2023-05-13T19:36:07.627Z,18.80
2023-05-13T19:38:36.626Z,19.45
2023-05-13T19:41:04.760Z,20.08
2023-05-13T19:43:32.618Z,19.90
2023-05-13T19:46:00.582Z,19.70
2023-05-13T19:48:31.419Z,19.88
2023-05-13T19:50:59.290Z,19.15
2023-05-13T19:53:30.725Z,19.75
2023-05-13T19:56:07.954Z,18.85
2023-05-13T19:58:38.908Z,18.54
2023-05-13T20:01:07.038Z,18.35
2023-05-13T20:03:34.835Z,19.48
2023-05-13T20:06:02.890Z,19.23
2023-05-13T20:08:33.505Z,18.56
2023-05-13T20:11:01.800Z,18.02
2023-05-13T20:13:29.567Z,19.23
2023-05-13T20:15:57.428Z,17.96
2023-05-13T20:18:25.748Z,19.13
2023-05-13T20:20:54.027Z,18.81
2023-05-13T20:23:21.818Z,19.04
2023-05-13T20:25:51.094Z,17.41
2023-05-13T20:28:19.380Z,18.96
2023-05-13T20:30:47.487Z,17.95
2023-05-13T20:33:17.880Z,18.37
2023-05-13T20:35:45.784Z,18.83
2023-05-13T20:38:13.793Z,15.78
2023-05-13T20:40:42.035Z,18.73
2023-05-13T20:43:16.730Z,17.73
2023-05-13T20:45:44.627Z,18.01
2023-05-13T20:48:13.633Z,17.88
2023-05-13T20:50:41.640Z,17.97
2023-05-13T20:53:09.463Z,15.42
2023-05-13T20:55:37.454Z,17.20
2023-05-13T20:58:05.682Z,18.46
2023-05-13T21:00:34.951Z,18.04
2023-05-13T21:03:03.391Z,17.54
2023-05-13T21:05:31.700Z,16.24
2023-05-13T21:07:59.832Z,16.93
2023-05-13T21:10:33.686Z,17.55
2023-05-13T21:13:01.986Z,18.14
2023-05-13T21:15:29.913Z,18.13
2023-05-13T21:17:59.235Z,17.97
2023-05-13T21:20:27.155Z,18.08
2023-05-13T21:22:54.959Z,17.61
2023-05-13T21:25:22.863Z,15.77
2023-05-13T21:27:50.996Z,16.70
2023-05-13T21:30:18.951Z,17.67
2023-05-13T21:32:46.767Z,16.94
2023-05-13T21:35:17.023Z,15.72
2023-05-13T21:37:47.195Z,14.87
2023-05-13T21:40:15.675Z,17.67
2023-05-13T21:42:43.702Z,17.00
2023-05-13T21:45:12.862Z,17.54
2023-05-13T21:47:41.113Z,17.40
2023-05-13T21:50:10.786Z,17.69
2023-05-13T21:52:40.434Z,17.68
2023-05-13T21:55:08.915Z,17.66
2023-05-13T21:57:36.674Z,17.10
2023-05-13T22:00:07.330Z,17.60
2023-05-13T22:02:37.291Z,16.49
2023-05-13T22:05:05.429Z,17.55
2023-05-13T22:07:33.274Z,17.29
2023-05-13T22:10:02.436Z,16.99
2023-05-13T22:12:30.351Z,17.46
2023-05-13T22:14:58.125Z,17.40
2023-05-13T22:17:26.011Z,17.36
2023-05-13T22:19:53.970Z,17.11
2023-05-13T22:22:22.038Z,17.32
2023-05-13T22:24:51.633Z,17.07
2023-05-13T22:27:21.458Z,16.72
2023-05-13T22:29:51.946Z,16.93
2023-05-13T22:32:19.768Z,17.05
2023-05-13T22:34:47.510Z,16.99
2023-05-13T22:37:15.792Z,17.19
2023-05-13T22:39:43.765Z,17.16
2023-05-13T22:42:11.513Z,17.13
2023-05-13T22:44:40.652Z,17.10
2023-05-13T22:47:08.867Z,16.90
2023-05-13T22:49:36.574Z,17.06
2023-05-13T22:52:04.782Z,16.87
2023-05-13T22:54:32.686Z,16.77
2023-05-13T22:57:00.366Z,17.00
2023-05-13T22:59:28.419Z,16.98
2023-05-13T23:01:57.734Z,16.76
2023-05-13T23:04:26.166Z,16.93
